createdAt,value
2023-01-18T00:01:01.181Z,14.90
2023-01-18T00:03:28.498Z,22.00
2023-01-18T00:05:55.326Z,20.30
2023-01-18T00:08:22.078Z,22.00
2023-01-18T00:10:48.823Z,18.10
2023-01-18T00:13:15.507Z,19.55
2023-01-18T00:15:42.256Z,17.85
2023-01-18T00:18:08.994Z,18.80
2023-01-18T00:20:35.723Z,14.68
2023-01-18T00:23:02.734Z,19.85
2023-01-18T00:25:30.133Z,19.70
2023-01-18T00:27:57.310Z,17.00
2023-01-18T00:30:29.322Z,18.38
2023-01-18T00:32:58.811Z,21.30
2023-01-18T00:35:26.257Z,18.40
2023-01-18T00:37:53.947Z,16.92
2023-01-18T00:40:22.616Z,18.70
2023-01-18T00:43:07.982Z,20.33
2023-01-18T00:45:35.052Z,20.88
2023-01-18T00:48:02.779Z,21.70
2023-01-18T00:50:29.825Z,22.33
2023-01-18T00:53:00.186Z,23.05
2023-01-18T00:55:27.455Z,21.25
2023-01-18T00:57:54.239Z,19.27
2023-01-18T01:00:26.912Z,19.70
2023-01-18T01:02:54.436Z,23.83
2023-01-18T01:05:42.414Z,33.10
2023-01-18T01:08:16.897Z,35.60
2023-01-18T01:10:49.021Z,28.48
2023-01-18T01:13:37.425Z,32.88
2023-01-18T01:16:28.407Z,33.05
2023-01-18T01:19:14.826Z,34.50
2023-01-18T01:22:00.244Z,25.75
2023-01-18T01:24:45.953Z,29.95
2023-01-18T01:27:13.749Z,29.52
2023-01-18T01:29:40.587Z,28.02
2023-01-18T01:32:07.420Z,33.25
2023-01-18T01:34:34.237Z,31.38
2023-01-18T01:37:00.959Z,31.60
2023-01-18T01:39:27.857Z,30.35
2023-01-18T01:41:54.669Z,25.73
2023-01-18T01:44:21.301Z,28.65
2023-01-18T01:46:58.930Z,27.08
2023-01-18T01:49:32.138Z,32.00
2023-01-18T01:52:01.469Z,23.73
2023-01-18T01:54:41.372Z,25.92
2023-01-18T01:57:14.081Z,30.83
2023-01-18T01:59:47.136Z,29.05
2023-01-18T02:02:13.954Z,32.25
2023-01-18T02:04:44.182Z,25.27
2023-01-18T02:07:13.835Z,23.70
2023-01-18T02:09:41.264Z,28.98
2023-01-18T02:12:08.077Z,26.38
2023-01-18T02:14:35.959Z,25.70
2023-01-18T02:17:02.581Z,28.42
2023-01-18T02:19:59.617Z,26.95
2023-01-18T02:22:44.947Z,26.92
2023-01-18T02:25:27.031Z,23.45
2023-01-18T02:28:13.937Z,22.40
2023-01-18T02:30:51.949Z,28.42
2023-01-18T02:33:34.477Z,22.55
2023-01-18T02:36:03.198Z,28.00
2023-01-18T02:38:40.810Z,22.27
2023-01-18T02:41:56.504Z,19.77
2023-01-18T02:44:52.996Z,24.48
2023-01-18T02:47:21.149Z,19.10
2023-01-18T02:49:47.888Z,22.45
2023-01-18T02:52:39.230Z,21.60
2023-01-18T02:55:12.707Z,19.02
2023-01-18T02:57:40.398Z,19.30
2023-01-18T03:00:11.328Z,20.15
2023-01-18T03:02:40.391Z,24.95
2023-01-18T03:05:10.574Z,25.90
2023-01-18T03:07:54.889Z,21.25
2023-01-18T03:10:24.476Z,22.40
2023-01-18T03:13:21.229Z,23.45
2023-01-18T03:16:05.594Z,18.83
2023-01-18T03:19:01.415Z,24.75
2023-01-18T03:21:43.248Z,25.35
2023-01-18T03:24:11.784Z,24.02
2023-01-18T03:26:43.301Z,22.27
2023-01-18T03:29:31.337Z,22.25
2023-01-18T03:32:30.535Z,25.67
2023-01-18T03:35:10.666Z,24.83
2023-01-18T03:37:41.287Z,22.55
2023-01-18T03:40:17.179Z,23.67
2023-01-18T03:42:59.649Z,20.08
2023-01-18T03:45:41.983Z,22.88
2023-01-18T03:48:09.928Z,23.50
2023-01-18T03:50:47.313Z,25.02
2023-01-18T03:53:19.353Z,21.42
2023-01-18T03:55:48.978Z,24.08
2023-01-18T03:58:22.048Z,21.63
2023-01-18T04:00:51.456Z,23.00
2023-01-18T04:03:18.221Z,20.92
2023-01-18T04:05:45.030Z,20.65
2023-01-18T04:08:11.727Z,26.35
2023-01-18T04:10:38.391Z,20.08
2023-01-18T04:13:05.041Z,22.85
2023-01-18T04:15:31.808Z,18.52
2023-01-18T04:17:58.494Z,19.38
2023-01-18T04:20:25.240Z,19.75
2023-01-18T04:22:53.232Z,25.15
2023-01-18T04:25:20.770Z,21.45
2023-01-18T04:27:47.475Z,26.30
2023-01-18T04:30:14.269Z,24.52
2023-01-18T04:32:42.779Z,26.50
2023-01-18T04:35:10.221Z,22.48
2023-01-18T04:37:38.353Z,21.98
2023-01-18T04:40:06.567Z,24.90
2023-01-18T04:42:33.312Z,23.40
2023-01-18T04:45:00.500Z,21.67
2023-01-18T04:47:30.691Z,24.75
2023-01-18T04:49:57.960Z,22.45
2023-01-18T04:52:26.591Z,28.17
2023-01-18T04:54:53.319Z,21.35
2023-01-18T04:57:20.087Z,21.63
2023-01-18T04:59:46.810Z,23.98
2023-01-18T05:02:15.265Z,23.20
2023-01-18T05:04:43.730Z,23.25
2023-01-18T05:07:11.326Z,22.63
2023-01-18T05:09:38.081Z,28.30
2023-01-18T05:12:05.144Z,19.88
2023-01-18T05:14:31.903Z,25.40
2023-01-18T05:16:58.593Z,23.40
2023-01-18T05:19:30.057Z,17.83
2023-01-18T05:21:56.936Z,19.75
2023-01-18T05:24:23.680Z,23.63
2023-01-18T05:26:50.409Z,22.45
2023-01-18T05:29:17.902Z,20.65
2023-01-18T05:31:44.892Z,23.60
2023-01-18T05:34:11.855Z,18.25
2023-01-18T05:36:38.565Z,15.70
2023-01-18T05:39:05.648Z,22.00
2023-01-18T05:41:32.493Z,21.10
2023-01-18T05:43:59.176Z,20.73
2023-01-18T05:46:26.039Z,21.77
2023-01-18T05:48:57.565Z,19.50
2023-01-18T05:51:24.816Z,18.48
2023-01-18T05:53:51.593Z,17.58
2023-01-18T05:56:18.353Z,22.48
2023-01-18T05:58:45.053Z,20.70
2023-01-18T06:01:11.975Z,21.58
2023-01-18T06:03:38.798Z,25.13
2023-01-18T06:06:05.801Z,21.83
2023-01-18T06:08:33.651Z,17.05
2023-01-18T06:11:00.970Z,19.23
2023-01-18T06:13:30.151Z,20.63
2023-01-18T06:15:58.297Z,19.52
2023-01-18T06:18:33.271Z,18.80
2023-01-18T06:21:02.482Z,19.33
2023-01-18T06:23:30.404Z,18.50
2023-01-18T06:25:57.561Z,16.75
2023-01-18T06:28:24.508Z,19.55
2023-01-18T06:30:55.337Z,17.00
2023-01-18T06:33:23.362Z,18.58
2023-01-18T06:35:50.168Z,17.10
2023-01-18T06:38:16.991Z,18.85
2023-01-18T06:40:43.714Z,22.48
2023-01-18T06:43:13.839Z,18.77
2023-01-18T06:45:41.377Z,18.33
2023-01-18T06:48:08.334Z,25.73
2023-01-18T06:50:35.110Z,26.75
2023-01-18T06:53:01.982Z,25.95
2023-01-18T06:55:28.788Z,21.77
2023-01-18T06:57:57.046Z,20.33
2023-01-18T07:00:24.097Z,21.52
2023-01-18T07:02:53.744Z,22.98
2023-01-18T07:05:20.475Z,21.77
2023-01-18T07:07:47.265Z,20.30
2023-01-18T07:10:16.362Z,19.67
2023-01-18T07:12:47.390Z,18.80
2023-01-18T07:15:21.636Z,19.30
2023-01-18T07:17:50.315Z,20.45
2023-01-18T07:20:17.528Z,16.35
2023-01-18T07:22:44.307Z,10.85
2023-01-18T07:25:13.519Z,9.98
2023-01-18T07:27:43.537Z,8.15
2023-01-18T07:30:14.664Z,8.45
2023-01-18T07:32:49.361Z,8.55
2023-01-18T07:35:17.346Z,7.07
2023-01-18T07:37:49.134Z,5.70
2023-01-18T07:40:16.184Z,8.50
2023-01-18T07:42:42.893Z,7.13
2023-01-18T07:45:10.609Z,8.57
2023-01-18T07:47:39.588Z,7.93
2023-01-18T07:50:06.680Z,8.98
2023-01-18T07:52:33.503Z,7.78
2023-01-18T07:55:00.183Z,7.60
2023-01-18T07:57:27.022Z,9.52
2023-01-18T07:59:53.767Z,7.90
2023-01-18T08:02:20.720Z,7.45
2023-01-18T08:04:50.541Z,8.18
2023-01-18T08:07:17.908Z,6.35
2023-01-18T08:09:44.883Z,7.70
2023-01-18T08:12:17.569Z,6.90
2023-01-18T08:14:45.972Z,6.07
2023-01-18T08:17:12.815Z,4.63
2023-01-18T08:19:39.604Z,5.35
2023-01-18T08:22:07.987Z,3.55
2023-01-18T08:24:34.830Z,5.28
2023-01-18T08:27:01.491Z,5.47
2023-01-18T08:29:28.242Z,5.85
2023-01-18T08:31:56.112Z,5.45
2023-01-18T08:34:22.958Z,7.68
2023-01-18T08:36:51.027Z,4.85
2023-01-18T08:39:17.848Z,7.90
2023-01-18T08:41:46.525Z,6.72
2023-01-18T08:44:13.651Z,4.68
2023-01-18T08:46:40.504Z,6.40
2023-01-18T08:49:07.307Z,7.50
2023-01-18T08:51:34.127Z,5.25
2023-01-18T08:54:01.114Z,5.05
2023-01-18T08:56:29.303Z,5.97
2023-01-18T08:58:56.344Z,3.22
2023-01-18T09:01:23.932Z,2.83
2023-01-18T09:03:54.295Z,3.88
2023-01-18T09:06:21.593Z,3.00
2023-01-18T09:08:49.223Z,5.75
2023-01-18T09:11:17.394Z,3.08
2023-01-18T09:13:59.416Z,2.50
2023-01-18T09:16:27.250Z,3.13
2023-01-18T09:18:55.895Z,3.90
2023-01-18T09:21:22.663Z,2.53
2023-01-18T09:23:49.483Z,3.70
2023-01-18T09:26:18.239Z,3.10
2023-01-18T09:28:47.416Z,5.47
2023-01-18T09:31:14.449Z,3.67
2023-01-18T09:33:51.169Z,2.90
2023-01-18T09:36:21.583Z,3.95
2023-01-18T09:38:48.420Z,3.38
2023-01-18T09:41:37.783Z,3.95
2023-01-18T09:44:39.298Z,4.10
2023-01-18T09:47:25.487Z,2.80
2023-01-18T09:50:02.323Z,4.00
2023-01-18T09:52:31.833Z,3.20
2023-01-18T09:55:27.691Z,4.25
2023-01-18T09:58:15.339Z,4.80
2023-01-18T10:00:46.220Z,2.53
2023-01-18T10:03:32.936Z,5.13
2023-01-18T10:06:08.924Z,5.03
2023-01-18T10:08:57.881Z,3.25
2023-01-18T10:11:44.811Z,3.75
2023-01-18T10:14:22.594Z,3.85
2023-01-18T10:16:56.915Z,5.28
2023-01-18T10:19:29.770Z,5.90
2023-01-18T10:22:06.403Z,3.05
2023-01-18T10:25:00.572Z,3.88
2023-01-18T10:27:56.256Z,2.75
2023-01-18T10:30:50.697Z,5.43
2023-01-18T10:33:25.087Z,4.85
2023-01-18T10:35:56.727Z,3.58
2023-01-18T10:38:26.249Z,3.53
2023-01-18T10:41:00.967Z,3.85
2023-01-18T10:43:30.060Z,3.05
2023-01-18T10:45:57.317Z,3.95
2023-01-18T10:48:28.830Z,3.05
2023-01-18T10:51:01.606Z,6.47
2023-01-18T10:53:31.636Z,3.55
2023-01-18T10:56:06.759Z,4.43
2023-01-18T10:58:51.073Z,5.43
2023-01-18T11:01:31.812Z,3.90
2023-01-18T11:04:05.924Z,4.72
2023-01-18T11:06:53.585Z,4.65
2023-01-18T11:09:40.986Z,4.78
2023-01-18T11:12:41.128Z,5.60
2023-01-18T11:15:13.998Z,9.52
2023-01-18T11:17:43.350Z,6.95
2023-01-18T11:20:21.678Z,7.53
2023-01-18T11:22:58.997Z,6.07
2023-01-18T11:25:47.273Z,5.00
2023-01-18T11:28:32.034Z,5.25
2023-01-18T11:31:12.916Z,5.53
2023-01-18T11:33:52.563Z,8.15
2023-01-18T11:36:21.633Z,8.52
2023-01-18T11:38:48.356Z,6.13
2023-01-18T11:41:23.362Z,4.07
2023-01-18T11:44:32.408Z,4.47
2023-01-18T11:47:03.819Z,4.63
2023-01-18T11:49:37.802Z,3.90
2023-01-18T11:52:20.868Z,4.53
2023-01-18T11:54:54.119Z,4.43
2023-01-18T11:57:20.945Z,7.32
2023-01-18T11:59:51.396Z,3.80
2023-01-18T12:02:56.128Z,3.97
2023-01-18T12:05:45.879Z,4.20
2023-01-18T12:08:22.425Z,3.15
2023-01-18T12:10:51.938Z,3.20
2023-01-18T12:13:47.151Z,4.65
2023-01-18T12:16:22.586Z,3.90
2023-01-18T12:19:04.480Z,3.70
2023-01-18T12:21:34.202Z,2.55
2023-01-18T12:24:20.626Z,3.08
2023-01-18T12:26:58.081Z,2.80
2023-01-18T12:29:46.725Z,3.53
2023-01-18T12:32:32.120Z,2.70
2023-01-18T12:35:24.042Z,2.80
2023-01-18T12:38:17.661Z,2.63
2023-01-18T12:41:04.895Z,2.22
2023-01-18T12:44:01.488Z,3.70
2023-01-18T12:46:52.164Z,4.88
2023-01-18T12:49:21.816Z,3.17
2023-01-18T12:51:52.751Z,2.53
2023-01-18T12:54:34.380Z,4.25
2023-01-18T12:57:02.117Z,2.83
2023-01-18T12:59:45.028Z,3.67
2023-01-18T13:02:33.480Z,3.90
2023-01-18T13:05:34.879Z,2.72
2023-01-18T13:08:09.086Z,3.45
2023-01-18T13:10:37.184Z,3.47
2023-01-18T13:13:05.965Z,2.97
2023-01-18T13:15:45.162Z,5.90
2023-01-18T13:18:18.799Z,21.08
2023-01-18T13:21:13.518Z,9.55
2023-01-18T13:23:42.981Z,12.65
2023-01-18T13:26:24.844Z,8.43
2023-01-18T13:29:10.314Z,20.80
2023-01-18T13:31:37.988Z,21.27
2023-01-18T13:34:08.079Z,13.75
2023-01-18T13:36:45.860Z,11.57
2023-01-18T13:39:23.557Z,9.30
2023-01-18T13:42:02.279Z,4.18
2023-01-18T13:44:40.621Z,4.88
2023-01-18T13:47:42.774Z,12.80
2023-01-18T13:50:28.094Z,14.63
2023-01-18T13:53:12.942Z,6.70
2023-01-18T13:56:00.051Z,7.72
2023-01-18T13:58:32.148Z,6.95
2023-01-18T14:01:03.460Z,9.25
2023-01-18T14:03:34.379Z,6.55
2023-01-18T14:06:09.158Z,5.78
2023-01-18T14:08:38.368Z,5.82
2023-01-18T14:11:11.348Z,7.18
2023-01-18T14:13:50.115Z,5.82
2023-01-18T14:16:21.320Z,4.63
2023-01-18T14:19:09.624Z,5.28
2023-01-18T14:22:08.537Z,8.63
2023-01-18T14:24:47.830Z,9.20
2023-01-18T14:27:19.843Z,11.52
2023-01-18T14:29:49.952Z,7.70
2023-01-18T14:32:21.641Z,11.15
2023-01-18T14:34:59.596Z,8.48
2023-01-18T14:37:32.061Z,10.10
2023-01-18T14:40:15.866Z,6.18
2023-01-18T14:43:05.757Z,9.27
2023-01-18T14:45:38.893Z,9.50
2023-01-18T14:48:10.285Z,6.60
2023-01-18T14:50:41.120Z,7.47
2023-01-18T14:53:14.664Z,8.27
2023-01-18T14:55:41.513Z,10.05
2023-01-18T14:58:17.063Z,7.72
2023-01-18T15:00:53.878Z,8.88
2023-01-18T15:03:29.667Z,8.82
2023-01-18T15:06:02.966Z,9.30
2023-01-18T15:08:34.188Z,6.50
2023-01-18T15:11:05.022Z,7.07
2023-01-18T15:13:32.849Z,13.10
2023-01-18T15:16:02.520Z,8.23
2023-01-18T15:18:30.052Z,6.68
2023-01-18T15:21:02.568Z,6.60
2023-01-18T15:23:33.134Z,8.13
2023-01-18T15:25:59.878Z,7.43
2023-01-18T15:28:33.867Z,5.88
2023-01-18T15:31:12.491Z,9.35
2023-01-18T15:33:39.674Z,11.95
2023-01-18T15:36:07.564Z,8.00
2023-01-18T15:38:34.390Z,8.20
2023-01-18T15:41:11.006Z,9.90
2023-01-18T15:43:42.544Z,7.50
2023-01-18T15:46:12.899Z,9.52
2023-01-18T15:48:51.669Z,13.60
2023-01-18T15:51:22.418Z,10.75
2023-01-18T15:53:56.053Z,7.82
2023-01-18T15:56:27.053Z,5.88
2023-01-18T15:58:57.271Z,8.68
2023-01-18T16:01:28.148Z,7.93
2023-01-18T16:04:00.784Z,7.40
2023-01-18T16:06:29.745Z,8.60
2023-01-18T16:09:13.587Z,18.13
2023-01-18T16:11:51.873Z,7.30
2023-01-18T16:14:20.780Z,8.00
2023-01-18T16:16:48.072Z,11.57
2023-01-18T16:19:23.893Z,14.25
2023-01-18T16:21:59.771Z,20.85
2023-01-18T16:24:53.562Z,15.52
2023-01-18T16:27:23.412Z,12.25
2023-01-18T16:29:54.962Z,15.05
2023-01-18T16:32:24.678Z,13.48
2023-01-18T16:34:53.351Z,15.75
2023-01-18T16:37:21.181Z,18.85
2023-01-18T16:39:48.993Z,16.25
2023-01-18T16:42:18.152Z,19.40
2023-01-18T16:44:46.700Z,11.90
2023-01-18T16:47:16.032Z,12.10
2023-01-18T16:49:44.259Z,22.30
2023-01-18T16:52:12.908Z,11.43
2023-01-18T16:54:42.018Z,10.27
2023-01-18T16:57:19.072Z,9.45
2023-01-18T16:59:45.962Z,13.50
2023-01-18T17:02:12.896Z,16.23
2023-01-18T17:04:39.940Z,11.18
2023-01-18T17:07:07.022Z,13.00
2023-01-18T17:09:40.465Z,13.88
2023-01-18T17:12:14.226Z,11.63
2023-01-18T17:14:41.012Z,13.55
2023-01-18T17:17:09.747Z,11.13
2023-01-18T17:19:37.787Z,12.07
2023-01-18T17:22:05.044Z,18.00
2023-01-18T17:24:31.967Z,13.82
2023-01-18T17:26:58.776Z,8.82
2023-01-18T17:29:25.529Z,13.98
2023-01-18T17:31:53.226Z,9.20
2023-01-18T17:34:28.105Z,14.27
2023-01-18T17:36:58.058Z,15.25
2023-01-18T17:39:31.997Z,7.35
2023-01-18T17:42:14.292Z,12.95
2023-01-18T17:44:43.391Z,12.02
2023-01-18T17:47:10.101Z,9.95
2023-01-18T17:49:36.914Z,9.95
2023-01-18T17:52:03.910Z,20.35
2023-01-18T17:54:30.657Z,14.82
2023-01-18T17:56:57.367Z,20.17
2023-01-18T17:59:24.465Z,12.63
2023-01-18T18:01:51.327Z,7.68
2023-01-18T18:04:18.608Z,10.13
2023-01-18T18:06:53.795Z,17.13
2023-01-18T18:09:21.224Z,14.30
2023-01-18T18:11:48.056Z,12.60
2023-01-18T18:14:15.143Z,11.68
2023-01-18T18:16:43.703Z,11.60
2023-01-18T18:19:14.460Z,9.18
2023-01-18T18:21:45.302Z,20.17
2023-01-18T18:24:12.046Z,15.18
2023-01-18T18:26:38.775Z,23.83
2023-01-18T18:29:05.515Z,12.98
2023-01-18T18:31:32.207Z,23.30
2023-01-18T18:33:59.013Z,14.85
2023-01-18T18:36:27.461Z,18.35
2023-01-18T18:38:54.454Z,16.42
2023-01-18T18:41:21.407Z,16.20
2023-01-18T18:43:48.090Z,10.55
2023-01-18T18:46:14.937Z,13.38
2023-01-18T18:48:41.771Z,13.02
2023-01-18T18:51:08.645Z,21.55
2023-01-18T18:53:39.779Z,14.65
2023-01-18T18:56:09.437Z,14.93
2023-01-18T18:58:36.830Z,12.05
2023-01-18T19:01:05.141Z,12.68
2023-01-18T19:03:32.635Z,14.48
2023-01-18T19:06:00.362Z,10.38
2023-01-18T19:08:27.274Z,10.57
2023-01-18T19:10:56.073Z,8.10
2023-01-18T19:13:22.818Z,10.70
2023-01-18T19:15:50.279Z,19.30
2023-01-18T19:18:17.177Z,11.57
2023-01-18T19:20:43.971Z,10.25
2023-01-18T19:23:11.298Z,10.75
2023-01-18T19:25:38.857Z,10.23
2023-01-18T19:28:05.693Z,7.97
2023-01-18T19:30:33.320Z,8.93
2023-01-18T19:33:00.763Z,10.60
2023-01-18T19:35:27.737Z,8.73
2023-01-18T19:37:55.051Z,10.63
2023-01-18T19:40:21.889Z,14.10
2023-01-18T19:42:54.857Z,13.95
2023-01-18T19:45:27.918Z,14.70
2023-01-18T19:47:56.609Z,16.58
2023-01-18T19:50:23.674Z,14.68
2023-01-18T19:52:50.474Z,7.18
2023-01-18T19:55:17.378Z,10.38
2023-01-18T19:57:44.673Z,12.30
2023-01-18T20:00:12.006Z,17.02
2023-01-18T20:02:39.824Z,13.45
2023-01-18T20:05:07.557Z,11.45
2023-01-18T20:07:34.266Z,12.43
2023-01-18T20:10:01.031Z,10.80
2023-01-18T20:12:31.221Z,12.77
2023-01-18T20:14:58.232Z,10.77
2023-01-18T20:17:25.976Z,12.52
2023-01-18T20:19:54.141Z,12.52
2023-01-18T20:22:22.260Z,15.40
2023-01-18T20:24:49.319Z,17.00
2023-01-18T20:27:17.099Z,9.63
2023-01-18T20:29:44.577Z,10.98
2023-01-18T20:32:17.178Z,10.88
2023-01-18T20:34:46.769Z,12.70
2023-01-18T20:37:14.391Z,12.00
2023-01-18T20:39:41.246Z,15.52
2023-01-18T20:42:08.514Z,18.95
2023-01-18T20:44:35.880Z,13.32
2023-01-18T20:47:02.972Z,14.38
2023-01-18T20:49:37.572Z,16.92
2023-01-18T20:52:05.797Z,13.20
2023-01-18T20:54:34.710Z,12.00
2023-01-18T20:57:02.341Z,14.45
2023-01-18T20:59:29.011Z,18.63
2023-01-18T21:01:55.939Z,12.80
2023-01-18T21:04:22.864Z,13.77
2023-01-18T21:06:49.950Z,11.88
2023-01-18T21:09:17.074Z,12.65
2023-01-18T21:11:44.007Z,13.23
2023-01-18T21:14:11.690Z,11.48
2023-01-18T21:16:38.509Z,12.80
2023-01-18T21:19:05.218Z,17.98
2023-01-18T21:21:32.097Z,16.33
2023-01-18T21:24:00.054Z,20.33
2023-01-18T21:26:27.344Z,17.27
2023-01-18T21:28:54.845Z,19.33
2023-01-18T21:31:22.059Z,11.77
2023-01-18T21:33:49.478Z,16.88
2023-01-18T21:36:18.031Z,13.10
2023-01-18T21:38:44.767Z,14.90
2023-01-18T21:41:30.201Z,11.88
2023-01-18T21:44:15.727Z,13.50
2023-01-18T21:46:46.705Z,16.52
2023-01-18T21:49:51.950Z,13.00
2023-01-18T21:52:38.901Z,15.75
2023-01-18T21:55:05.913Z,11.27
2023-01-18T21:57:32.637Z,13.68
2023-01-18T21:59:59.400Z,11.48
2023-01-18T22:02:26.335Z,12.93
2023-01-18T22:05:05.047Z,18.73
2023-01-18T22:07:34.494Z,20.30
2023-01-18T22:10:05.629Z,11.70
2023-01-18T22:12:35.222Z,13.43
2023-01-18T22:15:03.124Z,17.63
2023-01-18T22:17:29.933Z,25.27
2023-01-18T22:19:56.665Z,15.93
2023-01-18T22:22:23.492Z,15.75
2023-01-18T22:24:50.167Z,13.52
2023-01-18T22:27:16.808Z,17.10
2023-01-18T22:29:43.544Z,14.18
2023-01-18T22:32:10.286Z,12.15
2023-01-18T22:34:37.003Z,13.15
2023-01-18T22:37:03.912Z,12.13
2023-01-18T22:39:30.700Z,14.65
2023-01-18T22:41:57.583Z,13.82
2023-01-18T22:44:24.416Z,12.43
2023-01-18T22:46:51.213Z,19.23
2023-01-18T22:49:18.104Z,11.65
2023-01-18T22:51:44.876Z,14.00
2023-01-18T22:54:11.654Z,17.10
2023-01-18T22:56:38.370Z,16.05
2023-01-18T22:59:05.076Z,17.02
2023-01-18T23:01:32.750Z,22.35
2023-01-18T23:04:01.974Z,17.38
2023-01-18T23:06:42.172Z,15.40
2023-01-18T23:09:10.208Z,17.95
2023-01-18T23:11:37.319Z,20.15
2023-01-18T23:14:23.623Z,17.50
2023-01-18T23:17:09.375Z,13.80
2023-01-18T23:19:36.389Z,14.45
2023-01-18T23:22:07.080Z,16.17
2023-01-18T23:24:35.785Z,14.10
2023-01-18T23:27:03.443Z,15.60
2023-01-18T23:29:30.204Z,15.90
2023-01-18T23:31:57.514Z,13.50
2023-01-18T23:34:25.151Z,9.80
2023-01-18T23:36:52.145Z,9.43
2023-01-18T23:39:37.551Z,14.25
2023-01-18T23:42:23.229Z,11.52
2023-01-18T23:45:08.817Z,14.13
2023-01-18T23:47:54.892Z,9.00
2023-01-18T23:50:40.651Z,11.25
2023-01-18T23:53:30.621Z,13.27
2023-01-18T23:55:57.910Z,12.18
2023-01-18T23:58:25.256Z,9.50
